createdAt,value
2022-09-03T00:00:18.070Z,30.211
2022-09-03T00:05:17.736Z,30.211
2022-09-03T00:10:17.634Z,30.210
2022-09-03T00:15:17.906Z,30.210
2022-09-03T00:20:17.613Z,30.209
2022-09-03T00:25:17.707Z,30.210
2022-09-03T00:30:17.931Z,30.209
2022-09-03T00:35:17.855Z,30.209
2022-09-03T00:40:17.815Z,30.208
2022-09-03T00:45:17.881Z,30.209
2022-09-03T00:50:19.178Z,30.208
2022-09-03T00:55:17.950Z,30.209
2022-09-03T01:00:17.800Z,30.207
2022-09-03T01:05:17.763Z,30.209
2022-09-03T01:10:18.070Z,30.209
2022-09-03T01:15:17.887Z,30.207
2022-09-03T01:20:17.750Z,30.208
2022-09-03T01:25:17.765Z,30.207
2022-09-03T01:30:17.809Z,30.208
2022-09-03T01:35:17.840Z,30.209
2022-09-03T01:40:17.790Z,30.211
2022-09-03T01:45:18.242Z,30.209
2022-09-03T01:50:17.909Z,30.208
2022-09-03T01:55:17.943Z,30.208
2022-09-03T02:00:17.791Z,30.209
2022-09-03T02:05:17.893Z,30.210
2022-09-03T02:10:17.918Z,30.210
2022-09-03T02:15:18.134Z,30.211
2022-09-03T02:20:18.116Z,30.216
2022-09-03T02:25:17.960Z,30.215
2022-09-03T02:30:18.028Z,30.218
2022-09-03T02:35:18.023Z,30.218
2022-09-03T02:40:17.907Z,30.219
2022-09-03T02:45:18.069Z,30.218
2022-09-03T02:50:19.269Z,30.218
2022-09-03T02:55:17.951Z,30.216
2022-09-03T03:00:18.261Z,30.216
2022-09-03T03:05:18.082Z,30.216
2022-09-03T03:10:18.033Z,30.215
2022-09-03T03:15:18.160Z,30.215
2022-09-03T03:20:18.022Z,30.216
2022-09-03T03:25:18.286Z,30.217
2022-09-03T03:30:18.006Z,30.217
2022-09-03T03:35:18.057Z,30.215
2022-09-03T03:40:18.135Z,30.215
2022-09-03T03:45:18.133Z,30.214
2022-09-03T03:50:18.080Z,30.214
2022-09-03T03:55:18.703Z,30.214
2022-09-03T04:00:17.161Z,30.216
2022-09-03T04:05:17.146Z,30.217
2022-09-03T04:10:17.265Z,30.219
2022-09-03T04:15:17.508Z,30.219
2022-09-03T04:20:17.236Z,30.219
2022-09-03T04:25:17.087Z,30.220
2022-09-03T04:30:17.734Z,30.219
2022-09-03T04:35:17.158Z,30.220
2022-09-03T04:40:17.127Z,30.219
2022-09-03T04:45:17.303Z,30.216
2022-09-03T04:50:17.797Z,30.218
2022-09-03T04:55:17.313Z,30.217
2022-09-03T05:00:17.249Z,30.218
2022-09-03T05:05:17.510Z,30.219
2022-09-03T05:10:17.180Z,30.219
2022-09-03T05:15:17.465Z,30.217
2022-09-03T05:20:17.354Z,30.218
2022-09-03T05:25:17.300Z,30.218
2022-09-03T05:30:17.399Z,30.216
2022-09-03T05:35:17.366Z,30.217
2022-09-03T05:40:17.594Z,30.217
2022-09-03T05:45:17.421Z,30.216
2022-09-03T05:50:17.284Z,30.217
2022-09-03T05:55:17.369Z,30.216
2022-09-03T06:00:17.463Z,30.219
2022-09-03T06:05:17.377Z,30.217
2022-09-03T06:10:17.317Z,30.217
2022-09-03T06:15:17.684Z,30.216
2022-09-03T06:20:17.299Z,30.216
2022-09-03T06:25:17.449Z,30.214
2022-09-03T06:30:17.659Z,30.215
2022-09-03T06:35:17.500Z,30.215
2022-09-03T06:40:17.545Z,30.215
2022-09-03T06:45:17.990Z,30.214
2022-09-03T06:50:18.846Z,30.215
2022-09-03T06:55:17.450Z,30.215
2022-09-03T07:00:17.676Z,30.215
2022-09-03T07:05:17.518Z,30.213
2022-09-03T07:10:17.393Z,30.214
2022-09-03T07:15:17.605Z,30.213
2022-09-03T07:20:17.673Z,30.214
2022-09-03T07:25:17.611Z,30.214
2022-09-03T07:30:18.570Z,30.215
2022-09-03T07:35:17.610Z,30.215
2022-09-03T07:40:19.528Z,30.216
2022-09-03T07:45:17.783Z,30.219
2022-09-03T07:50:17.594Z,30.218
2022-09-03T07:55:17.746Z,30.218
2022-09-03T08:00:18.074Z,30.216
2022-09-03T08:05:17.510Z,30.217
2022-09-03T08:10:17.602Z,30.214
2022-09-03T08:15:17.748Z,30.218
2022-09-03T08:20:17.566Z,30.219
2022-09-03T08:25:17.661Z,30.220
2022-09-03T08:30:17.966Z,30.220
2022-09-03T08:35:17.633Z,30.221
2022-09-03T08:40:17.624Z,30.219
2022-09-03T08:45:17.847Z,30.221
2022-09-03T08:50:17.792Z,30.217
2022-09-03T08:55:17.657Z,30.217
2022-09-03T09:00:17.858Z,30.217
2022-09-03T09:05:17.708Z,30.220
2022-09-03T09:10:18.878Z,30.219
2022-09-03T09:15:18.062Z,30.220
2022-09-03T09:20:17.721Z,30.221
2022-09-03T09:25:17.754Z,30.222
2022-09-03T09:30:17.835Z,30.225
2022-09-03T09:35:18.059Z,30.226
2022-09-03T09:40:17.919Z,30.226
2022-09-03T09:45:17.934Z,30.226
2022-09-03T09:50:25.104Z,30.224
2022-09-03T09:55:17.846Z,30.229
2022-09-03T10:00:18.103Z,30.228
2022-09-03T10:05:18.416Z,30.230
2022-09-03T10:10:18.330Z,30.233
2022-09-03T10:15:17.999Z,30.233
2022-09-03T10:20:18.032Z,30.233
2022-09-03T10:25:17.961Z,30.235
2022-09-03T10:30:18.147Z,30.236
2022-09-03T10:35:17.962Z,30.238
2022-09-03T10:40:18.070Z,30.240
2022-09-03T10:45:18.129Z,30.243
2022-09-03T10:50:17.952Z,30.240
2022-09-03T10:55:17.928Z,30.243
2022-09-03T11:00:18.022Z,30.244
2022-09-03T11:05:18.138Z,30.246
2022-09-03T11:10:18.157Z,30.249
2022-09-03T11:15:18.127Z,30.248
2022-09-03T11:20:17.946Z,30.247
2022-09-03T11:25:18.140Z,30.248
2022-09-03T11:30:18.183Z,30.250
2022-09-03T11:35:18.419Z,30.250
2022-09-03T11:40:17.971Z,30.250
2022-09-03T11:45:18.420Z,30.247
2022-09-03T11:50:17.999Z,30.248
2022-09-03T11:55:18.080Z,30.250
2022-09-03T12:00:18.103Z,30.246
2022-09-03T12:05:19.034Z,30.248
2022-09-03T12:10:18.290Z,30.249
2022-09-03T12:15:18.148Z,30.247
2022-09-03T12:20:18.353Z,30.249
2022-09-03T12:25:18.272Z,30.246
2022-09-03T12:30:18.315Z,30.245
2022-09-03T12:36:01.043Z,30.246
2022-09-03T12:40:18.220Z,30.245
2022-09-03T12:45:18.401Z,30.243
2022-09-03T12:50:20.017Z,30.243
2022-09-03T12:55:18.394Z,30.240
2022-09-03T13:00:16.344Z,30.241
2022-09-03T13:05:16.266Z,30.243
2022-09-03T13:10:16.544Z,30.243
2022-09-03T13:15:16.320Z,30.243
2022-09-03T13:20:16.570Z,30.242
2022-09-03T13:25:16.295Z,30.241
2022-09-03T13:30:16.397Z,30.239
2022-09-03T13:35:16.207Z,30.236
2022-09-03T13:40:16.310Z,30.234
2022-09-03T13:45:16.364Z,30.233
2022-09-03T13:50:16.371Z,30.235
2022-09-03T13:55:17.097Z,30.232
2022-09-03T14:00:16.493Z,30.233
2022-09-03T14:05:16.512Z,30.233
2022-09-03T14:10:16.534Z,30.231
2022-09-03T14:15:16.629Z,30.230
2022-09-03T14:20:16.282Z,30.229
2022-09-03T14:25:16.638Z,30.224
2022-09-03T14:30:16.605Z,30.225
2022-09-03T14:35:16.491Z,30.224
2022-09-03T14:40:16.519Z,30.223
2022-09-03T14:45:16.465Z,30.221
2022-09-03T14:50:17.003Z,30.221
2022-09-03T14:55:16.494Z,30.220
2022-09-03T15:00:18.444Z,30.219
2022-09-03T15:05:16.481Z,30.219
2022-09-03T15:10:16.498Z,30.217
2022-09-03T15:15:16.765Z,30.214
2022-09-03T15:20:16.495Z,30.214
2022-09-03T15:25:16.561Z,30.216
2022-09-03T15:30:16.555Z,30.216
2022-09-03T15:35:16.596Z,30.214
2022-09-03T15:40:16.575Z,30.213
2022-09-03T15:45:16.626Z,30.210
2022-09-03T15:50:16.622Z,30.208
2022-09-03T15:55:17.150Z,30.206
2022-09-03T16:00:16.736Z,30.203
2022-09-03T16:05:16.553Z,30.201
2022-09-03T16:10:25.295Z,30.202
2022-09-03T16:15:16.988Z,30.202
2022-09-03T16:20:16.865Z,30.202
2022-09-03T16:25:16.973Z,30.202
2022-09-03T16:30:16.732Z,30.200
2022-09-03T16:35:16.695Z,30.199
2022-09-03T16:40:16.610Z,30.197
2022-09-03T16:45:16.843Z,30.194
2022-09-03T16:50:16.754Z,30.193
2022-09-03T16:55:17.743Z,30.191
2022-09-03T17:00:16.902Z,30.189
2022-09-03T17:05:16.692Z,30.189
2022-09-03T17:10:16.841Z,30.188
2022-09-03T17:15:16.858Z,30.190
2022-09-03T17:20:16.758Z,30.185
2022-09-03T17:25:16.753Z,30.183
2022-09-03T17:30:17.038Z,30.185
2022-09-03T17:35:16.802Z,30.185
2022-09-03T17:40:16.750Z,30.184
2022-09-03T17:45:17.079Z,30.183
2022-09-03T17:50:16.766Z,30.179
2022-09-03T17:55:16.843Z,30.179
2022-09-03T18:00:16.973Z,30.177
2022-09-03T18:05:17.008Z,30.174
2022-09-03T18:10:16.913Z,30.171
2022-09-03T18:15:16.868Z,30.171
2022-09-03T18:20:17.056Z,30.169
2022-09-03T18:25:16.843Z,30.167
2022-09-03T18:30:16.867Z,30.165
2022-09-03T18:35:16.925Z,30.164
2022-09-03T18:40:16.965Z,30.163
2022-09-03T18:45:24.333Z,30.162
2022-09-03T18:50:16.923Z,30.162
2022-09-03T18:55:17.040Z,30.162
2022-09-03T19:00:16.835Z,30.160
2022-09-03T19:05:17.021Z,30.157
2022-09-03T19:10:17.113Z,30.154
2022-09-03T19:15:17.789Z,30.152
2022-09-03T19:20:17.091Z,30.152
2022-09-03T19:25:16.943Z,30.150
2022-09-03T19:30:17.101Z,30.145
2022-09-03T19:35:17.054Z,30.144
2022-09-03T19:40:17.001Z,30.145
2022-09-03T19:45:17.152Z,30.141
2022-09-03T19:50:17.352Z,30.141
2022-09-03T19:55:17.246Z,30.140
2022-09-03T20:00:17.037Z,30.138
2022-09-03T20:05:17.089Z,30.139
2022-09-03T20:10:17.065Z,30.138
2022-09-03T20:15:17.207Z,30.137
2022-09-03T20:20:17.052Z,30.133
2022-09-03T20:25:17.248Z,30.133
2022-09-03T20:30:17.231Z,30.131
2022-09-03T20:35:17.197Z,30.129
2022-09-03T20:40:17.342Z,30.128
2022-09-03T20:45:17.151Z,30.127
2022-09-03T20:50:17.100Z,30.127
2022-09-03T20:55:17.117Z,30.123
2022-09-03T21:00:17.421Z,30.123
2022-09-03T21:05:17.130Z,30.120
2022-09-03T21:10:17.071Z,30.119
2022-09-03T21:15:17.389Z,30.117
2022-09-03T21:20:17.141Z,30.118
2022-09-03T21:25:17.343Z,30.115
2022-09-03T21:30:17.359Z,30.115
2022-09-03T21:35:18.841Z,30.115
2022-09-03T21:45:17.427Z,30.112
2022-09-03T21:50:18.017Z,30.110
2022-09-03T21:55:17.312Z,30.110
2022-09-03T22:00:20.401Z,30.109
2022-09-03T22:05:17.335Z,30.108
2022-09-03T22:10:20.444Z,30.107
2022-09-03T22:15:17.488Z,30.108
2022-09-03T22:20:17.283Z,30.108
2022-09-03T22:25:17.867Z,30.110
2022-09-03T22:30:20.019Z,30.107
2022-09-03T22:35:17.421Z,30.105
2022-09-03T22:40:17.844Z,30.101
2022-09-03T22:45:17.582Z,30.099
2022-09-03T22:50:17.283Z,30.095
2022-09-03T22:55:17.486Z,30.094
2022-09-03T23:00:17.522Z,30.096
2022-09-03T23:05:17.483Z,30.095
2022-09-03T23:10:23.069Z,30.095
2022-09-03T23:15:17.746Z,30.094
2022-09-03T23:20:17.401Z,30.093
2022-09-03T23:25:17.539Z,30.092
2022-09-03T23:30:17.462Z,30.090
2022-09-03T23:35:17.520Z,30.091
2022-09-03T23:40:17.477Z,30.087
2022-09-03T23:45:17.797Z,30.089
2022-09-03T23:50:17.711Z,30.089
2022-09-03T23:55:17.476Z,30.088
